sensor_id;sensor_type;location;lat;lon;timestamp;temperature;humidity
16485;DHT22;8353;47.856;12.344;2023-04-26T00:00:52;9.40;99.90
16485;DHT22;8353;47.856;12.344;2023-04-26T00:03:41;9.40;99.90
16485;DHT22;8353;47.856;12.344;2023-04-26T00:06:28;9.50;99.90
16485;DHT22;8353;47.856;12.344;2023-04-26T00:09:15;9.30;99.90
16485;DHT22;8353;47.856;12.344;2023-04-26T00:12:03;9.30;99.90
16485;DHT22;8353;47.856;12.344;2023-04-26T00:14:50;9.30;99.90
16485;DHT22;8353;47.856;12.344;2023-04-26T00:17:37;9.30;99.90
16485;DHT22;8353;47.856;12.344;2023-04-26T00:20:25;9.10;99.90
16485;DHT22;8353;47.856;12.344;2023-04-26T00:23:12;9.20;99.90
16485;DHT22;8353;47.856;12.344;2023-04-26T00:25:59;9.00;99.90
16485;DHT22;8353;47.856;12.344;2023-04-26T00:28:45;9.10;99.90
16485;DHT22;8353;47.856;12.344;2023-04-26T00:31:32;9.20;99.90
16485;DHT22;8353;47.856;12.344;2023-04-26T00:34:19;9.30;99.90
16485;DHT22;8353;47.856;12.344;2023-04-26T00:37:07;9.30;99.90
16485;DHT22;8353;47.856;12.344;2023-04-26T00:39:54;9.40;99.90
16485;DHT22;8353;47.856;12.344;2023-04-26T00:42:41;9.40;99.90
16485;DHT22;8353;47.856;12.344;2023-04-26T00:45:28;9.40;99.90
16485;DHT22;8353;47.856;12.344;2023-04-26T00:48:15;9.30;99.90
16485;DHT22;8353;47.856;12.344;2023-04-26T00:51:03;9.30;99.90
16485;DHT22;8353;47.856;12.344;2023-04-26T00:53:52;9.30;99.90
16485;DHT22;8353;47.856;12.344;2023-04-26T00:56:39;9.20;99.90
16485;DHT22;8353;47.856;12.344;2023-04-26T00:59:27;9.20;99.90
16485;DHT22;8353;47.856;12.344;2023-04-26T01:02:14;9.10;99.90
16485;DHT22;8353;47.856;12.344;2023-04-26T01:05:02;9.10;99.90
16485;DHT22;8353;47.856;12.344;2023-04-26T01:07:49;9.10;99.90
16485;DHT22;8353;47.856;12.344;2023-04-26T01:10:38;8.90;99.90
16485;DHT22;8353;47.856;12.344;2023-04-26T01:13:25;8.90;99.90
16485;DHT22;8353;47.856;12.344;2023-04-26T01:16:13;8.90;99.90
16485;DHT22;8353;47.856;12.344;2023-04-26T01:19:06;9.10;99.90
16485;DHT22;8353;47.856;12.344;2023-04-26T01:21:54;9.10;99.90
16485;DHT22;8353;47.856;12.344;2023-04-26T01:24:44;9.30;99.90
16485;DHT22;8353;47.856;12.344;2023-04-26T01:27:32;9.20;99.90
16485;DHT22;8353;47.856;12.344;2023-04-26T01:30:19;9.40;99.90
16485;DHT22;8353;47.856;12.344;2023-04-26T01:33:05;9.40;99.90
16485;DHT22;8353;47.856;12.344;2023-04-26T01:35:52;9.40;99.90
16485;DHT22;8353;47.856;12.344;2023-04-26T01:38:39;9.50;99.90
16485;DHT22;8353;47.856;12.344;2023-04-26T01:41:27;9.60;99.90
16485;DHT22;8353;47.856;12.344;2023-04-26T01:44:14;9.70;99.90
16485;DHT22;8353;47.856;12.344;2023-04-26T01:47:00;9.70;99.90
16485;DHT22;8353;47.856;12.344;2023-04-26T01:49:46;9.70;99.90
16485;DHT22;8353;47.856;12.344;2023-04-26T01:52:33;9.70;99.90
16485;DHT22;8353;47.856;12.344;2023-04-26T01:55:20;9.70;99.90
16485;DHT22;8353;47.856;12.344;2023-04-26T01:58:08;9.70;99.90
16485;DHT22;8353;47.856;12.344;2023-04-26T02:00:55;9.70;99.90
16485;DHT22;8353;47.856;12.344;2023-04-26T02:03:42;9.60;99.90
16485;DHT22;8353;47.856;12.344;2023-04-26T02:06:29;9.70;99.90
16485;DHT22;8353;47.856;12.344;2023-04-26T02:09:17;9.80;99.90
16485;DHT22;8353;47.856;12.344;2023-04-26T02:12:06;9.80;99.90
16485;DHT22;8353;47.856;12.344;2023-04-26T02:14:55;9.80;99.90
16485;DHT22;8353;47.856;12.344;2023-04-26T02:17:42;9.80;99.90
16485;DHT22;8353;47.856;12.344;2023-04-26T02:20:29;9.60;99.90
16485;DHT22;8353;47.856;12.344;2023-04-26T02:23:16;9.50;99.90
16485;DHT22;8353;47.856;12.344;2023-04-26T02:26:03;9.40;99.90
16485;DHT22;8353;47.856;12.344;2023-04-26T02:28:50;9.30;99.90
16485;DHT22;8353;47.856;12.344;2023-04-26T02:31:38;9.20;99.90
16485;DHT22;8353;47.856;12.344;2023-04-26T02:34:25;9.30;99.90
16485;DHT22;8353;47.856;12.344;2023-04-26T02:37:12;9.20;99.90
16485;DHT22;8353;47.856;12.344;2023-04-26T02:39:59;9.20;99.90
16485;DHT22;8353;47.856;12.344;2023-04-26T02:42:46;9.20;99.90
16485;DHT22;8353;47.856;12.344;2023-04-26T02:45:33;9.10;99.90
16485;DHT22;8353;47.856;12.344;2023-04-26T02:48:21;9.10;99.90
16485;DHT22;8353;47.856;12.344;2023-04-26T02:51:08;9.20;99.90
16485;DHT22;8353;47.856;12.344;2023-04-26T02:53:54;9.20;99.90
16485;DHT22;8353;47.856;12.344;2023-04-26T02:56:41;9.30;99.90
16485;DHT22;8353;47.856;12.344;2023-04-26T02:59:28;9.30;99.90
16485;DHT22;8353;47.856;12.344;2023-04-26T03:02:15;9.30;99.90
16485;DHT22;8353;47.856;12.344;2023-04-26T03:05:04;9.30;99.90
16485;DHT22;8353;47.856;12.344;2023-04-26T03:07:51;9.30;99.90
16485;DHT22;8353;47.856;12.344;2023-04-26T03:10:38;9.20;99.90
16485;DHT22;8353;47.856;12.344;2023-04-26T03:13:25;9.10;99.90
16485;DHT22;8353;47.856;12.344;2023-04-26T03:16:12;9.00;99.90
16485;DHT22;8353;47.856;12.344;2023-04-26T03:18:59;8.90;99.90
16485;DHT22;8353;47.856;12.344;2023-04-26T03:21:47;8.90;99.90
16485;DHT22;8353;47.856;12.344;2023-04-26T03:24:34;9.00;99.90
16485;DHT22;8353;47.856;12.344;2023-04-26T03:27:20;9.00;99.90
16485;DHT22;8353;47.856;12.344;2023-04-26T03:30:08;9.00;99.90
16485;DHT22;8353;47.856;12.344;2023-04-26T03:32:55;9.10;99.90
16485;DHT22;8353;47.856;12.344;2023-04-26T03:35:42;9.20;99.90
16485;DHT22;8353;47.856;12.344;2023-04-26T03:38:30;9.10;99.90
16485;DHT22;8353;47.856;12.344;2023-04-26T03:41:17;9.10;99.90
16485;DHT22;8353;47.856;12.344;2023-04-26T03:44:04;9.20;99.90
16485;DHT22;8353;47.856;12.344;2023-04-26T03:46:51;9.10;99.90
16485;DHT22;8353;47.856;12.344;2023-04-26T03:49:38;9.00;99.90
16485;DHT22;8353;47.856;12.344;2023-04-26T03:52:24;8.90;99.90
16485;DHT22;8353;47.856;12.344;2023-04-26T03:55:13;8.90;99.90
16485;DHT22;8353;47.856;12.344;2023-04-26T03:58:00;8.90;99.90
16485;DHT22;8353;47.856;12.344;2023-04-26T04:00:47;8.80;99.90
16485;DHT22;8353;47.856;12.344;2023-04-26T04:03:34;8.70;99.90
16485;DHT22;8353;47.856;12.344;2023-04-26T04:06:21;8.70;99.90
16485;DHT22;8353;47.856;12.344;2023-04-26T04:09:08;8.60;99.90
16485;DHT22;8353;47.856;12.344;2023-04-26T04:11:56;8.60;99.90
16485;DHT22;8353;47.856;12.344;2023-04-26T04:14:43;8.70;99.90
16485;DHT22;8353;47.856;12.344;2023-04-26T04:17:30;8.70;99.90
16485;DHT22;8353;47.856;12.344;2023-04-26T04:20:17;8.60;99.90
16485;DHT22;8353;47.856;12.344;2023-04-26T04:23:06;8.70;99.90
16485;DHT22;8353;47.856;12.344;2023-04-26T04:25:54;8.80;99.90
16485;DHT22;8353;47.856;12.344;2023-04-26T04:28:42;8.70;99.90
16485;DHT22;8353;47.856;12.344;2023-04-26T04:31:30;8.60;99.90
16485;DHT22;8353;47.856;12.344;2023-04-26T04:34:17;8.70;99.90
16485;DHT22;8353;47.856;12.344;2023-04-26T04:37:04;8.80;99.90
16485;DHT22;8353;47.856;12.344;2023-04-26T04:39:51;8.90;99.90
16485;DHT22;8353;47.856;12.344;2023-04-26T04:42:38;8.90;99.90
16485;DHT22;8353;47.856;12.344;2023-04-26T04:45:26;8.80;99.90
16485;DHT22;8353;47.856;12.344;2023-04-26T04:48:13;8.70;99.90
16485;DHT22;8353;47.856;12.344;2023-04-26T04:51:00;8.80;99.90
16485;DHT22;8353;47.856;12.344;2023-04-26T04:53:47;8.80;99.90
16485;DHT22;8353;47.856;12.344;2023-04-26T04:56:34;8.80;99.90
16485;DHT22;8353;47.856;12.344;2023-04-26T04:59:21;8.70;99.90
16485;DHT22;8353;47.856;12.344;2023-04-26T05:02:09;8.70;99.90
16485;DHT22;8353;47.856;12.344;2023-04-26T05:04:56;8.80;99.90
16485;DHT22;8353;47.856;12.344;2023-04-26T05:07:43;8.90;99.90
16485;DHT22;8353;47.856;12.344;2023-04-26T05:10:31;8.90;99.90
16485;DHT22;8353;47.856;12.344;2023-04-26T05:13:18;9.00;99.90
16485;DHT22;8353;47.856;12.344;2023-04-26T05:16:06;9.00;99.90
16485;DHT22;8353;47.856;12.344;2023-04-26T05:18:54;9.00;99.90
16485;DHT22;8353;47.856;12.344;2023-04-26T05:21:42;8.90;99.90
16485;DHT22;8353;47.856;12.344;2023-04-26T05:24:29;8.90;99.90
16485;DHT22;8353;47.856;12.344;2023-04-26T05:27:16;9.10;99.90
16485;DHT22;8353;47.856;12.344;2023-04-26T05:30:03;8.90;99.90
16485;DHT22;8353;47.856;12.344;2023-04-26T05:32:50;8.90;99.90
16485;DHT22;8353;47.856;12.344;2023-04-26T05:35:40;8.80;99.90
16485;DHT22;8353;47.856;12.344;2023-04-26T05:38:27;8.90;99.90
16485;DHT22;8353;47.856;12.344;2023-04-26T05:41:14;9.00;99.90
16485;DHT22;8353;47.856;12.344;2023-04-26T05:44:01;9.20;99.90
16485;DHT22;8353;47.856;12.344;2023-04-26T05:46:48;9.20;99.90
16485;DHT22;8353;47.856;12.344;2023-04-26T05:49:35;9.10;99.90
16485;DHT22;8353;47.856;12.344;2023-04-26T05:52:23;9.10;99.90
16485;DHT22;8353;47.856;12.344;2023-04-26T05:55:10;9.20;99.90
16485;DHT22;8353;47.856;12.344;2023-04-26T05:57:58;9.30;99.90
16485;DHT22;8353;47.856;12.344;2023-04-26T06:00:45;9.20;99.90
16485;DHT22;8353;47.856;12.344;2023-04-26T06:03:36;9.20;99.90
16485;DHT22;8353;47.856;12.344;2023-04-26T06:06:22;9.10;99.90
16485;DHT22;8353;47.856;12.344;2023-04-26T06:09:12;9.20;99.90
16485;DHT22;8353;47.856;12.344;2023-04-26T06:11:59;9.30;99.90
16485;DHT22;8353;47.856;12.344;2023-04-26T06:14:46;9.40;99.90
16485;DHT22;8353;47.856;12.344;2023-04-26T06:17:33;9.40;99.90
16485;DHT22;8353;47.856;12.344;2023-04-26T06:20:21;9.40;99.90
16485;DHT22;8353;47.856;12.344;2023-04-26T06:23:07;9.30;99.90
16485;DHT22;8353;47.856;12.344;2023-04-26T06:25:56;9.50;99.90
16485;DHT22;8353;47.856;12.344;2023-04-26T06:28:43;9.50;99.90
16485;DHT22;8353;47.856;12.344;2023-04-26T06:31:30;9.50;99.90
16485;DHT22;8353;47.856;12.344;2023-04-26T06:34:19;9.40;99.90
16485;DHT22;8353;47.856;12.344;2023-04-26T06:37:06;9.50;99.90
16485;DHT22;8353;47.856;12.344;2023-04-26T06:39:53;9.60;99.90
16485;DHT22;8353;47.856;12.344;2023-04-26T06:42:41;9.70;99.90
16485;DHT22;8353;47.856;12.344;2023-04-26T06:45:32;9.80;99.90
16485;DHT22;8353;47.856;12.344;2023-04-26T06:48:20;9.80;99.90
16485;DHT22;8353;47.856;12.344;2023-04-26T06:51:08;9.70;99.90
16485;DHT22;8353;47.856;12.344;2023-04-26T06:53:59;9.80;99.90
16485;DHT22;8353;47.856;12.344;2023-04-26T06:56:46;9.70;99.90
16485;DHT22;8353;47.856;12.344;2023-04-26T06:59:34;9.90;99.90
16485;DHT22;8353;47.856;12.344;2023-04-26T07:02:22;10.00;99.90
16485;DHT22;8353;47.856;12.344;2023-04-26T07:05:09;10.20;99.90
16485;DHT22;8353;47.856;12.344;2023-04-26T07:07:55;10.30;99.90
16485;DHT22;8353;47.856;12.344;2023-04-26T07:10:42;10.40;99.90
16485;DHT22;8353;47.856;12.344;2023-04-26T07:13:29;10.50;99.90
16485;DHT22;8353;47.856;12.344;2023-04-26T07:16:18;10.60;99.90
16485;DHT22;8353;47.856;12.344;2023-04-26T07:19:06;10.70;99.90
16485;DHT22;8353;47.856;12.344;2023-04-26T07:21:55;10.70;99.90
16485;DHT22;8353;47.856;12.344;2023-04-26T07:24:42;10.70;99.90
16485;DHT22;8353;47.856;12.344;2023-04-26T07:27:29;10.70;99.90
16485;DHT22;8353;47.856;12.344;2023-04-26T07:30:16;10.70;99.90
16485;DHT22;8353;47.856;12.344;2023-04-26T07:33:04;10.70;99.90
16485;DHT22;8353;47.856;12.344;2023-04-26T07:35:53;10.70;99.90
16485;DHT22;8353;47.856;12.344;2023-04-26T07:38:40;10.80;99.90
16485;DHT22;8353;47.856;12.344;2023-04-26T07:41:27;10.90;99.90
16485;DHT22;8353;47.856;12.344;2023-04-26T07:44:14;10.90;99.90
16485;DHT22;8353;47.856;12.344;2023-04-26T07:47:01;10.90;99.90
16485;DHT22;8353;47.856;12.344;2023-04-26T07:49:53;10.90;99.90
16485;DHT22;8353;47.856;12.344;2023-04-26T07:52:40;10.90;99.90
16485;DHT22;8353;47.856;12.344;2023-04-26T07:55:28;10.90;99.90
16485;DHT22;8353;47.856;12.344;2023-04-26T07:58:15;10.90;99.90
16485;DHT22;8353;47.856;12.344;2023-04-26T08:01:04;11.10;99.90
16485;DHT22;8353;47.856;12.344;2023-04-26T08:03:51;11.10;99.90
16485;DHT22;8353;47.856;12.344;2023-04-26T08:06:40;11.00;99.90
16485;DHT22;8353;47.856;12.344;2023-04-26T08:09:29;11.20;99.90
16485;DHT22;8353;47.856;12.344;2023-04-26T08:12:16;11.30;99.90
16485;DHT22;8353;47.856;12.344;2023-04-26T08:15:04;11.20;99.90
16485;DHT22;8353;47.856;12.344;2023-04-26T08:17:52;11.40;99.90
16485;DHT22;8353;47.856;12.344;2023-04-26T08:20:40;11.50;99.90
16485;DHT22;8353;47.856;12.344;2023-04-26T08:23:32;11.50;99.90
16485;DHT22;8353;47.856;12.344;2023-04-26T08:26:20;11.50;99.90
16485;DHT22;8353;47.856;12.344;2023-04-26T08:29:08;11.60;99.90
16485;DHT22;8353;47.856;12.344;2023-04-26T08:31:55;11.70;99.90
16485;DHT22;8353;47.856;12.344;2023-04-26T08:34:42;11.70;99.90
16485;DHT22;8353;47.856;12.344;2023-04-26T08:37:29;11.90;99.90
16485;DHT22;8353;47.856;12.344;2023-04-26T08:40:21;11.90;99.90
16485;DHT22;8353;47.856;12.344;2023-04-26T08:43:10;11.70;99.90
16485;DHT22;8353;47.856;12.344;2023-04-26T08:45:58;12.10;99.90
16485;DHT22;8353;47.856;12.344;2023-04-26T08:48:49;12.40;99.90
16485;DHT22;8353;47.856;12.344;2023-04-26T08:51:38;12.40;99.90
16485;DHT22;8353;47.856;12.344;2023-04-26T08:54:31;12.60;99.90
16485;DHT22;8353;47.856;12.344;2023-04-26T08:57:20;12.80;99.90
16485;DHT22;8353;47.856;12.344;2023-04-26T09:00:08;12.90;99.90
16485;DHT22;8353;47.856;12.344;2023-04-26T09:02:57;13.00;99.90
16485;DHT22;8353;47.856;12.344;2023-04-26T09:05:45;13.20;99.90
16485;DHT22;8353;47.856;12.344;2023-04-26T09:08:39;13.40;99.90
16485;DHT22;8353;47.856;12.344;2023-04-26T09:11:28;13.30;99.90
16485;DHT22;8353;47.856;12.344;2023-04-26T09:14:16;13.30;99.90
16485;DHT22;8353;47.856;12.344;2023-04-26T09:17:03;13.40;99.90
16485;DHT22;8353;47.856;12.344;2023-04-26T09:19:50;13.60;99.90
16485;DHT22;8353;47.856;12.344;2023-04-26T09:22:37;13.70;99.90
16485;DHT22;8353;47.856;12.344;2023-04-26T09:25:29;14.00;99.90
16485;DHT22;8353;47.856;12.344;2023-04-26T09:28:20;14.10;99.90
16485;DHT22;8353;47.856;12.344;2023-04-26T09:31:09;14.00;99.90
16485;DHT22;8353;47.856;12.344;2023-04-26T09:33:58;14.00;99.90
16485;DHT22;8353;47.856;12.344;2023-04-26T09:36:48;14.00;99.90
16485;DHT22;8353;47.856;12.344;2023-04-26T09:39:36;13.90;99.90
16485;DHT22;8353;47.856;12.344;2023-04-26T09:42:24;13.90;99.90
16485;DHT22;8353;47.856;12.344;2023-04-26T09:45:13;14.00;99.90
16485;DHT22;8353;47.856;12.344;2023-04-26T09:48:14;14.10;99.90
16485;DHT22;8353;47.856;12.344;2023-04-26T09:51:09;14.10;99.90
16485;DHT22;8353;47.856;12.344;2023-04-26T09:54:02;14.30;99.90
16485;DHT22;8353;47.856;12.344;2023-04-26T09:57:00;14.50;99.90
16485;DHT22;8353;47.856;12.344;2023-04-26T09:59:48;14.70;99.90
16485;DHT22;8353;47.856;12.344;2023-04-26T10:02:36;14.50;99.90
16485;DHT22;8353;47.856;12.344;2023-04-26T10:05:24;14.50;99.90
16485;DHT22;8353;47.856;12.344;2023-04-26T10:08:11;14.80;99.90
16485;DHT22;8353;47.856;12.344;2023-04-26T10:10:59;14.90;99.90
16485;DHT22;8353;47.856;12.344;2023-04-26T10:13:49;15.10;99.90
16485;DHT22;8353;47.856;12.344;2023-04-26T10:16:36;15.40;99.90
16485;DHT22;8353;47.856;12.344;2023-04-26T10:19:24;15.40;99.90
16485;DHT22;8353;47.856;12.344;2023-04-26T10:22:16;15.30;99.90
16485;DHT22;8353;47.856;12.344;2023-04-26T10:25:04;15.20;99.90
16485;DHT22;8353;47.856;12.344;2023-04-26T10:27:59;15.40;99.90
16485;DHT22;8353;47.856;12.344;2023-04-26T10:30:55;15.40;99.90
16485;DHT22;8353;47.856;12.344;2023-04-26T10:34:16;15.40;99.90
16485;DHT22;8353;47.856;12.344;2023-04-26T10:37:08;15.00;99.90
16485;DHT22;8353;47.856;12.344;2023-04-26T10:40:23;15.00;99.90
16485;DHT22;8353;47.856;12.344;2023-04-26T10:43:29;15.00;99.90
16485;DHT22;8353;47.856;12.344;2023-04-26T10:46:34;15.00;99.90
16485;DHT22;8353;47.856;12.344;2023-04-26T10:49:18;14.80;99.90
16485;DHT22;8353;47.856;12.344;2023-04-26T10:52:08;15.00;99.90
16485;DHT22;8353;47.856;12.344;2023-04-26T10:55:00;15.00;99.90
16485;DHT22;8353;47.856;12.344;2023-04-26T10:57:51;14.90;99.90
16485;DHT22;8353;47.856;12.344;2023-04-26T11:00:38;14.90;99.90
16485;DHT22;8353;47.856;12.344;2023-04-26T11:03:25;15.10;99.90
16485;DHT22;8353;47.856;12.344;2023-04-26T11:06:18;15.00;99.90
16485;DHT22;8353;47.856;12.344;2023-04-26T11:09:32;15.10;99.90
16485;DHT22;8353;47.856;12.344;2023-04-26T11:12:23;15.20;99.90
16485;DHT22;8353;47.856;12.344;2023-04-26T11:15:11;15.40;99.90
16485;DHT22;8353;47.856;12.344;2023-04-26T11:18:01;15.40;99.90
16485;DHT22;8353;47.856;12.344;2023-04-26T11:20:51;15.30;99.90
16485;DHT22;8353;47.856;12.344;2023-04-26T11:23:39;15.40;99.90
16485;DHT22;8353;47.856;12.344;2023-04-26T11:26:31;15.40;99.90
16485;DHT22;8353;47.856;12.344;2023-04-26T11:29:20;15.40;99.90
16485;DHT22;8353;47.856;12.344;2023-04-26T11:32:07;15.50;99.90
16485;DHT22;8353;47.856;12.344;2023-04-26T11:34:59;15.70;99.90
16485;DHT22;8353;47.856;12.344;2023-04-26T11:37:46;15.50;99.90
16485;DHT22;8353;47.856;12.344;2023-04-26T11:40:34;15.50;99.90
16485;DHT22;8353;47.856;12.344;2023-04-26T11:43:22;15.40;99.90
16485;DHT22;8353;47.856;12.344;2023-04-26T11:46:19;15.20;99.90
16485;DHT22;8353;47.856;12.344;2023-04-26T11:49:07;15.20;99.90
16485;DHT22;8353;47.856;12.344;2023-04-26T11:51:54;15.50;99.90
16485;DHT22;8353;47.856;12.344;2023-04-26T11:54:41;15.50;99.90
16485;DHT22;8353;47.856;12.344;2023-04-26T11:57:29;15.50;99.90
16485;DHT22;8353;47.856;12.344;2023-04-26T12:00:18;15.70;99.90
16485;DHT22;8353;47.856;12.344;2023-04-26T12:03:07;15.50;99.90
16485;DHT22;8353;47.856;12.344;2023-04-26T12:05:55;15.40;99.90
16485;DHT22;8353;47.856;12.344;2023-04-26T12:08:48;15.50;99.90
16485;DHT22;8353;47.856;12.344;2023-04-26T12:11:35;15.60;99.90
16485;DHT22;8353;47.856;12.344;2023-04-26T12:14:22;15.30;99.90
16485;DHT22;8353;47.856;12.344;2023-04-26T12:17:13;15.40;99.90
16485;DHT22;8353;47.856;12.344;2023-04-26T12:20:09;15.50;99.90
16485;DHT22;8353;47.856;12.344;2023-04-26T12:23:04;15.20;99.90
16485;DHT22;8353;47.856;12.344;2023-04-26T12:25:53;15.10;99.90
16485;DHT22;8353;47.856;12.344;2023-04-26T12:28:44;15.40;99.90
16485;DHT22;8353;47.856;12.344;2023-04-26T12:31:31;15.60;99.90
16485;DHT22;8353;47.856;12.344;2023-04-26T12:34:18;15.90;99.90
16485;DHT22;8353;47.856;12.344;2023-04-26T12:37:07;16.20;99.90
16485;DHT22;8353;47.856;12.344;2023-04-26T12:39:54;15.90;99.90
16485;DHT22;8353;47.856;12.344;2023-04-26T12:42:41;15.90;99.90
16485;DHT22;8353;47.856;12.344;2023-04-26T12:45:28;16.00;99.90
16485;DHT22;8353;47.856;12.344;2023-04-26T12:48:16;16.20;99.90
16485;DHT22;8353;47.856;12.344;2023-04-26T12:51:03;16.60;99.90
16485;DHT22;8353;47.856;12.344;2023-04-26T12:53:52;16.60;99.90
16485;DHT22;8353;47.856;12.344;2023-04-26T12:56:39;16.30;99.90
16485;DHT22;8353;47.856;12.344;2023-04-26T12:59:28;16.60;99.90
16485;DHT22;8353;47.856;12.344;2023-04-26T13:02:15;16.60;99.90
16485;DHT22;8353;47.856;12.344;2023-04-26T13:05:03;16.80;99.90
16485;DHT22;8353;47.856;12.344;2023-04-26T13:07:51;16.80;99.90
16485;DHT22;8353;47.856;12.344;2023-04-26T13:10:39;16.60;99.90
16485;DHT22;8353;47.856;12.344;2023-04-26T13:13:26;16.70;99.90
16485;DHT22;8353;47.856;12.344;2023-04-26T13:16:14;16.90;99.90
16485;DHT22;8353;47.856;12.344;2023-04-26T13:19:01;16.60;99.90
16485;DHT22;8353;47.856;12.344;2023-04-26T13:21:50;16.70;99.90
16485;DHT22;8353;47.856;12.344;2023-04-26T13:24:38;16.80;99.90
16485;DHT22;8353;47.856;12.344;2023-04-26T13:27:28;16.70;99.90
16485;DHT22;8353;47.856;12.344;2023-04-26T13:30:15;16.70;99.90
16485;DHT22;8353;47.856;12.344;2023-04-26T13:33:02;16.70;99.90
16485;DHT22;8353;47.856;12.344;2023-04-26T13:35:54;16.60;99.90
16485;DHT22;8353;47.856;12.344;2023-04-26T13:38:40;16.60;99.90
16485;DHT22;8353;47.856;12.344;2023-04-26T13:41:27;16.90;99.90
16485;DHT22;8353;47.856;12.344;2023-04-26T13:44:19;16.80;99.90
16485;DHT22;8353;47.856;12.344;2023-04-26T13:47:06;16.60;99.90
16485;DHT22;8353;47.856;12.344;2023-04-26T13:49:53;17.00;99.90
16485;DHT22;8353;47.856;12.344;2023-04-26T13:52:40;17.10;99.90
16485;DHT22;8353;47.856;12.344;2023-04-26T13:55:27;17.30;99.90
16485;DHT22;8353;47.856;12.344;2023-04-26T13:58:14;17.60;99.90
16485;DHT22;8353;47.856;12.344;2023-04-26T14:01:03;17.80;99.90
16485;DHT22;8353;47.856;12.344;2023-04-26T14:03:50;18.10;99.90
16485;DHT22;8353;47.856;12.344;2023-04-26T14:06:37;18.30;99.90
16485;DHT22;8353;47.856;12.344;2023-04-26T14:09:24;18.40;99.90
16485;DHT22;8353;47.856;12.344;2023-04-26T14:12:13;18.20;99.90
16485;DHT22;8353;47.856;12.344;2023-04-26T14:15:01;18.20;99.90
16485;DHT22;8353;47.856;12.344;2023-04-26T14:17:51;17.80;99.90
16485;DHT22;8353;47.856;12.344;2023-04-26T14:20:38;17.80;99.90
16485;DHT22;8353;47.856;12.344;2023-04-26T14:23:25;17.70;99.90
16485;DHT22;8353;47.856;12.344;2023-04-26T14:26:12;17.80;99.90
16485;DHT22;8353;47.856;12.344;2023-04-26T14:28:59;17.60;99.90
16485;DHT22;8353;47.856;12.344;2023-04-26T14:31:47;17.70;99.90
16485;DHT22;8353;47.856;12.344;2023-04-26T14:34:35;17.40;99.90
16485;DHT22;8353;47.856;12.344;2023-04-26T14:37:25;17.40;99.90
16485;DHT22;8353;47.856;12.344;2023-04-26T14:40:13;17.70;99.90
16485;DHT22;8353;47.856;12.344;2023-04-26T14:43:00;17.60;99.90
16485;DHT22;8353;47.856;12.344;2023-04-26T14:45:47;17.30;99.90
16485;DHT22;8353;47.856;12.344;2023-04-26T14:48:36;17.00;99.90
16485;DHT22;8353;47.856;12.344;2023-04-26T14:51:24;16.60;99.90
16485;DHT22;8353;47.856;12.344;2023-04-26T14:54:11;16.20;99.90
16485;DHT22;8353;47.856;12.344;2023-04-26T14:57:02;15.70;99.90
16485;DHT22;8353;47.856;12.344;2023-04-26T14:59:48;15.40;99.90
16485;DHT22;8353;47.856;12.344;2023-04-26T15:02:35;15.50;99.90
16485;DHT22;8353;47.856;12.344;2023-04-26T15:05:22;16.00;99.90
16485;DHT22;8353;47.856;12.344;2023-04-26T15:08:10;16.10;99.90
16485;DHT22;8353;47.856;12.344;2023-04-26T15:10:57;16.20;99.90
16485;DHT22;8353;47.856;12.344;2023-04-26T15:13:44;16.30;99.90
16485;DHT22;8353;47.856;12.344;2023-04-26T15:16:31;15.90;99.90
16485;DHT22;8353;47.856;12.344;2023-04-26T15:19:18;16.40;99.90
16485;DHT22;8353;47.856;12.344;2023-04-26T15:22:07;16.70;99.90
16485;DHT22;8353;47.856;12.344;2023-04-26T15:24:55;17.00;99.90
16485;DHT22;8353;47.856;12.344;2023-04-26T15:27:44;17.30;99.90
16485;DHT22;8353;47.856;12.344;2023-04-26T15:30:31;17.10;99.90
16485;DHT22;8353;47.856;12.344;2023-04-26T15:33:20;17.20;99.90
16485;DHT22;8353;47.856;12.344;2023-04-26T15:36:07;17.30;99.90
16485;DHT22;8353;47.856;12.344;2023-04-26T15:38:57;17.60;99.90
16485;DHT22;8353;47.856;12.344;2023-04-26T15:41:46;17.60;99.90
16485;DHT22;8353;47.856;12.344;2023-04-26T15:44:33;17.30;99.90
16485;DHT22;8353;47.856;12.344;2023-04-26T15:47:20;17.00;99.90
16485;DHT22;8353;47.856;12.344;2023-04-26T15:50:07;16.90;99.90
16485;DHT22;8353;47.856;12.344;2023-04-26T15:52:56;16.80;99.90
16485;DHT22;8353;47.856;12.344;2023-04-26T15:55:43;16.90;99.90
16485;DHT22;8353;47.856;12.344;2023-04-26T15:58:31;16.70;99.90
16485;DHT22;8353;47.856;12.344;2023-04-26T16:01:21;16.70;99.90
16485;DHT22;8353;47.856;12.344;2023-04-26T16:04:08;16.80;99.90
16485;DHT22;8353;47.856;12.344;2023-04-26T16:06:54;16.90;99.90
16485;DHT22;8353;47.856;12.344;2023-04-26T16:09:41;16.70;99.90
16485;DHT22;8353;47.856;12.344;2023-04-26T16:12:30;16.90;99.90
16485;DHT22;8353;47.856;12.344;2023-04-26T16:15:18;16.80;99.90
16485;DHT22;8353;47.856;12.344;2023-04-26T16:18:05;16.90;99.90
16485;DHT22;8353;47.856;12.344;2023-04-26T16:20:52;16.80;99.90
16485;DHT22;8353;47.856;12.344;2023-04-26T16:23:39;16.70;99.90
16485;DHT22;8353;47.856;12.344;2023-04-26T16:26:27;16.80;99.90
16485;DHT22;8353;47.856;12.344;2023-04-26T16:29:14;16.80;99.90
16485;DHT22;8353;47.856;12.344;2023-04-26T16:32:02;16.70;99.90
16485;DHT22;8353;47.856;12.344;2023-04-26T16:34:49;16.90;99.90
16485;DHT22;8353;47.856;12.344;2023-04-26T16:37:36;16.80;99.90
16485;DHT22;8353;47.856;12.344;2023-04-26T16:40:24;16.70;99.90
16485;DHT22;8353;47.856;12.344;2023-04-26T16:43:11;16.60;99.90
16485;DHT22;8353;47.856;12.344;2023-04-26T16:45:59;16.30;99.90
16485;DHT22;8353;47.856;12.344;2023-04-26T16:48:48;16.20;99.90
16485;DHT22;8353;47.856;12.344;2023-04-26T16:51:35;16.10;99.90
16485;DHT22;8353;47.856;12.344;2023-04-26T16:54:22;16.00;99.90
16485;DHT22;8353;47.856;12.344;2023-04-26T16:57:09;16.00;99.90
16485;DHT22;8353;47.856;12.344;2023-04-26T16:59:58;15.80;99.90
16485;DHT22;8353;47.856;12.344;2023-04-26T17:02:44;15.90;99.90
16485;DHT22;8353;47.856;12.344;2023-04-26T17:05:38;16.10;99.90
16485;DHT22;8353;47.856;12.344;2023-04-26T17:08:25;16.10;99.90
16485;DHT22;8353;47.856;12.344;2023-04-26T17:11:13;16.10;99.90
16485;DHT22;8353;47.856;12.344;2023-04-26T17:14:00;16.00;99.90
16485;DHT22;8353;47.856;12.344;2023-04-26T17:16:48;15.80;99.90
16485;DHT22;8353;47.856;12.344;2023-04-26T17:19:35;15.80;99.90
16485;DHT22;8353;47.856;12.344;2023-04-26T17:22:23;15.80;99.90
16485;DHT22;8353;47.856;12.344;2023-04-26T17:25:10;15.80;99.90
16485;DHT22;8353;47.856;12.344;2023-04-26T17:27:57;15.50;99.90
16485;DHT22;8353;47.856;12.344;2023-04-26T17:30:44;15.40;99.90
16485;DHT22;8353;47.856;12.344;2023-04-26T17:33:31;15.50;99.90
16485;DHT22;8353;47.856;12.344;2023-04-26T17:36:18;15.50;99.90
16485;DHT22;8353;47.856;12.344;2023-04-26T17:39:06;15.40;99.90
16485;DHT22;8353;47.856;12.344;2023-04-26T17:41:53;15.40;99.90
16485;DHT22;8353;47.856;12.344;2023-04-26T17:44:40;15.50;99.90
16485;DHT22;8353;47.856;12.344;2023-04-26T17:47:28;15.50;99.90
16485;DHT22;8353;47.856;12.344;2023-04-26T17:50:15;15.60;99.90